createdAt,value
2019-02-03T00:00:59.521Z,19.97
2019-02-03T00:03:29.629Z,24.00
2019-02-03T00:06:00.118Z,21.07
2019-02-03T00:08:30.314Z,20.70
2019-02-03T00:11:00.464Z,15.57
2019-02-03T00:13:31.294Z,17.20
2019-02-03T00:16:01.569Z,15.10
2019-02-03T00:18:31.769Z,15.70
2019-02-03T00:21:01.906Z,13.30
2019-02-03T00:23:33.702Z,15.20
2019-02-03T00:26:04.124Z,18.17
2019-02-03T00:28:34.331Z,14.03
2019-02-03T00:31:04.556Z,18.93
2019-02-03T00:33:34.707Z,18.43
2019-02-03T00:36:05.312Z,17.03
2019-02-03T00:38:35.943Z,16.90
2019-02-03T00:41:06.128Z,16.73
2019-02-03T00:43:36.342Z,14.27
2019-02-03T00:46:06.729Z,14.60
2019-02-03T00:48:36.862Z,13.40
2019-02-03T00:51:09.978Z,16.10
2019-02-03T00:53:40.221Z,14.03
2019-02-03T00:56:10.541Z,12.43
2019-02-03T00:58:41.215Z,15.77
2019-02-03T01:01:11.354Z,14.80
2019-02-03T01:03:41.760Z,14.57
2019-02-03T01:06:11.996Z,16.83
2019-02-03T01:08:42.397Z,13.90
2019-02-03T01:11:12.576Z,13.13
2019-02-03T01:13:42.730Z,14.60
2019-02-03T01:16:13.265Z,16.93
2019-02-03T01:18:43.475Z,21.47
2019-02-03T01:21:13.635Z,17.37
2019-02-03T01:23:43.774Z,15.20
2019-02-03T01:26:13.948Z,16.53
2019-02-03T01:28:44.599Z,17.77
2019-02-03T01:31:14.797Z,20.37
2019-02-03T01:33:44.969Z,16.60
2019-02-03T01:36:15.134Z,16.60
2019-02-03T01:38:45.838Z,17.70
2019-02-03T01:41:16.060Z,23.50
2019-02-03T01:44:05.620Z,15.13
2019-02-03T01:46:35.817Z,16.70
2019-02-03T01:49:06.267Z,16.10
2019-02-03T01:51:36.731Z,16.00
2019-02-03T01:54:06.880Z,19.73
2019-02-03T01:56:37.068Z,18.10
2019-02-03T01:59:07.421Z,19.53
2019-02-03T02:01:37.575Z,22.80
2019-02-03T02:04:08.083Z,20.30
2019-02-03T02:06:38.320Z,24.10
2019-02-03T02:09:09.143Z,20.80
2019-02-03T02:11:39.317Z,23.77
2019-02-03T02:14:09.477Z,22.13
2019-02-03T02:16:39.911Z,24.17
2019-02-03T02:19:10.053Z,26.07
2019-02-03T02:21:40.400Z,25.00
2019-02-03T02:24:10.849Z,27.33
2019-02-03T02:26:41.009Z,28.97
2019-02-03T02:29:11.157Z,22.73
2019-02-03T02:31:41.365Z,26.37
2019-02-03T02:34:12.008Z,23.47
2019-02-03T02:36:42.111Z,29.70
2019-02-03T02:39:12.284Z,31.13
2019-02-03T02:41:42.457Z,26.90
2019-02-03T02:44:12.633Z,25.10
2019-02-03T02:46:42.765Z,30.40
2019-02-03T02:49:12.952Z,33.63
2019-02-03T02:51:43.099Z,29.87
2019-02-03T02:54:13.283Z,32.50
2019-02-03T02:56:43.819Z,27.93
2019-02-03T02:59:13.966Z,30.03
2019-02-03T03:01:44.167Z,33.03
2019-02-03T03:04:14.319Z,27.33
2019-02-03T03:06:44.470Z,40.67
2019-02-03T03:09:14.810Z,35.17
2019-02-03T03:11:44.959Z,34.20
2019-02-03T03:14:15.363Z,28.40
2019-02-03T03:16:45.555Z,39.90
2019-02-03T03:19:15.695Z,28.50
2019-02-03T03:21:46.124Z,34.40
2019-02-03T03:24:16.293Z,35.27
2019-02-03T03:26:46.477Z,30.80
2019-02-03T03:29:16.658Z,28.03
2019-02-03T03:31:46.837Z,31.83
2019-02-03T03:34:17.386Z,27.80
2019-02-03T03:36:47.565Z,26.20
2019-02-03T03:39:17.725Z,28.90
2019-02-03T03:41:48.018Z,26.23
2019-02-03T03:44:18.193Z,27.00
2019-02-03T03:46:48.324Z,22.87
2019-02-03T03:49:18.486Z,24.30
2019-02-03T03:51:48.645Z,22.37
2019-02-03T03:54:19.481Z,25.97
2019-02-03T03:56:49.679Z,26.42
2019-02-03T03:59:19.887Z,27.53
2019-02-03T04:01:50.119Z,27.97
2019-02-03T04:04:20.274Z,28.90
2019-02-03T04:06:50.635Z,30.20
2019-02-03T04:09:20.809Z,37.83
2019-02-03T04:11:51.148Z,29.63
2019-02-03T04:14:21.490Z,21.43
2019-02-03T04:16:51.658Z,27.27
2019-02-03T04:19:21.891Z,27.43
2019-02-03T04:21:52.057Z,26.17
2019-02-03T04:24:22.319Z,19.87
2019-02-03T04:26:52.945Z,30.80
2019-02-03T04:29:23.076Z,22.37
2019-02-03T04:31:53.301Z,28.17
2019-02-03T04:34:23.668Z,27.27
2019-02-03T04:36:53.796Z,26.37
2019-02-03T04:39:24.414Z,23.90
2019-02-03T04:41:54.614Z,27.40
2019-02-03T04:44:24.827Z,23.97
2019-02-03T04:46:54.947Z,28.80
2019-02-03T04:49:25.203Z,26.05
2019-02-03T04:51:55.627Z,23.77
2019-02-03T04:54:25.816Z,19.80
2019-02-03T04:56:55.980Z,21.42
2019-02-03T04:59:27.116Z,20.37
2019-02-03T05:01:57.275Z,25.23
2019-02-03T05:04:27.422Z,24.90
2019-02-03T05:06:57.590Z,23.20
2019-02-03T05:09:27.730Z,27.80
2019-02-03T05:11:57.912Z,25.33
2019-02-03T05:14:28.216Z,25.37
2019-02-03T05:16:58.395Z,24.73
2019-02-03T05:19:28.578Z,29.37
2019-02-03T05:21:58.731Z,28.40
2019-02-03T05:24:28.919Z,29.77
2019-02-03T05:26:59.271Z,21.20
2019-02-03T05:29:29.677Z,25.08
2019-02-03T05:31:59.900Z,24.30
2019-02-03T05:34:30.073Z,21.20
2019-02-03T05:37:00.293Z,26.53
2019-02-03T05:39:30.795Z,22.43
2019-02-03T05:42:01.013Z,28.87
2019-02-03T05:44:31.462Z,21.90
2019-02-03T05:47:01.643Z,21.70
2019-02-03T05:49:31.779Z,23.43
2019-02-03T05:52:02.002Z,22.50
2019-02-03T05:54:32.267Z,21.87
2019-02-03T05:57:02.721Z,25.23
2019-02-03T05:59:32.881Z,18.40
2019-02-03T06:02:03.034Z,19.30
2019-02-03T06:04:33.201Z,23.90
2019-02-03T06:07:03.556Z,19.97
2019-02-03T06:09:36.730Z,22.80
2019-02-03T06:12:06.021Z,18.37
2019-02-03T06:14:36.184Z,20.07
2019-02-03T06:17:06.456Z,19.30
2019-02-03T06:19:36.632Z,21.00
2019-02-03T06:22:07.197Z,19.90
2019-02-03T06:24:37.389Z,25.77
2019-02-03T06:27:07.541Z,16.63
2019-02-03T06:29:37.773Z,17.50
2019-02-03T06:32:07.921Z,16.70
2019-02-03T06:34:38.149Z,19.30
2019-02-03T06:37:08.398Z,14.97
2019-02-03T06:39:48.246Z,21.10
2019-02-03T06:42:10.434Z,17.90
2019-02-03T06:44:40.644Z,18.60
2019-02-03T06:47:18.578Z,21.10
2019-02-03T06:49:48.751Z,22.63
2019-02-03T06:52:19.683Z,24.23
2019-02-03T06:54:49.856Z,24.33
2019-02-03T06:57:20.012Z,11.47
2019-02-03T06:59:51.407Z,20.80
2019-02-03T07:02:21.633Z,26.63
2019-02-03T07:04:51.771Z,23.10
2019-02-03T07:07:21.990Z,18.03
2019-02-03T07:10:00.334Z,17.57
2019-02-03T07:12:23.987Z,19.97
2019-02-03T07:14:54.441Z,21.35
2019-02-03T07:17:24.604Z,20.17
2019-02-03T07:19:54.759Z,19.47
2019-02-03T07:22:24.922Z,17.37
2019-02-03T07:24:55.404Z,14.90
2019-02-03T07:27:25.546Z,20.35
2019-02-03T07:29:55.706Z,18.03
2019-02-03T07:32:25.879Z,15.27
2019-02-03T07:34:56.129Z,17.17
2019-02-03T07:37:26.578Z,16.97
2019-02-03T07:39:56.756Z,22.47
2019-02-03T07:42:26.967Z,20.80
2019-02-03T07:44:57.116Z,22.57
2019-02-03T07:47:27.326Z,20.10
2019-02-03T07:49:57.480Z,18.83
2019-02-03T07:52:27.650Z,20.33
2019-02-03T07:54:57.825Z,16.33
2019-02-03T07:57:27.979Z,17.93
2019-02-03T07:59:58.258Z,16.83
2019-02-03T08:02:28.444Z,17.70
2019-02-03T08:04:58.686Z,21.70
2019-02-03T08:07:28.842Z,17.60
2019-02-03T08:09:59.017Z,21.95
2019-02-03T08:12:29.164Z,21.87
2019-02-03T08:14:59.328Z,22.70
2019-02-03T08:17:29.865Z,14.60
2019-02-03T08:20:00.034Z,21.60
2019-02-03T08:22:30.181Z,23.57
2019-02-03T08:25:00.778Z,18.77
2019-02-03T08:27:31.035Z,21.53
2019-02-03T08:30:01.196Z,14.63
2019-02-03T08:32:31.349Z,21.87
2019-02-03T08:35:01.618Z,19.47
2019-02-03T08:37:31.760Z,14.83
2019-02-03T08:40:01.920Z,22.63
2019-02-03T08:42:35.037Z,22.90
2019-02-03T08:45:05.799Z,19.60
2019-02-03T08:47:35.975Z,17.27
2019-02-03T08:50:10.787Z,20.23
2019-02-03T08:52:40.949Z,21.40
2019-02-03T08:55:11.815Z,15.50
2019-02-03T08:57:42.819Z,21.77
2019-02-03T09:00:31.938Z,19.20
2019-02-03T09:03:02.492Z,22.97
2019-02-03T09:05:33.116Z,21.90
2019-02-03T09:08:03.354Z,16.60
2019-02-03T09:10:33.716Z,23.70
2019-02-03T09:13:03.898Z,20.17
2019-02-03T09:15:34.064Z,23.83
2019-02-03T09:18:06.171Z,18.93
2019-02-03T09:20:36.887Z,25.13
2019-02-03T09:23:07.140Z,20.13
2019-02-03T09:25:37.304Z,21.37
2019-02-03T09:28:07.626Z,20.17
2019-02-03T09:30:39.841Z,24.07
2019-02-03T09:33:10.014Z,26.00
2019-02-03T09:35:40.250Z,21.50
2019-02-03T09:38:10.395Z,20.47
2019-02-03T09:40:40.636Z,25.53
2019-02-03T09:43:10.771Z,21.43
2019-02-03T09:45:40.934Z,19.17
2019-02-03T09:48:11.153Z,17.10
2019-02-03T09:50:41.318Z,21.37
2019-02-03T09:53:11.713Z,16.80
2019-02-03T09:55:41.914Z,22.70
2019-02-03T09:58:12.064Z,16.70
2019-02-03T10:00:42.315Z,19.23
2019-02-03T10:03:13.764Z,20.13
2019-02-03T10:05:43.924Z,17.57
2019-02-03T10:08:16.051Z,14.07
2019-02-03T10:10:46.206Z,21.30
2019-02-03T10:13:16.365Z,20.87
2019-02-03T10:15:46.582Z,21.23
2019-02-03T10:18:16.805Z,16.07
2019-02-03T10:20:46.962Z,21.60
2019-02-03T10:23:17.379Z,18.70
2019-02-03T10:25:47.550Z,22.80
2019-02-03T10:28:17.712Z,21.80
2019-02-03T10:30:47.947Z,20.97
2019-02-03T10:33:18.132Z,16.03
2019-02-03T10:35:48.640Z,18.70
2019-02-03T10:38:18.791Z,21.83
2019-02-03T10:40:49.133Z,21.87
2019-02-03T10:43:19.384Z,18.97
2019-02-03T10:45:49.592Z,22.27
2019-02-03T10:48:19.761Z,22.43
2019-02-03T10:50:49.987Z,18.23
2019-02-03T10:53:20.145Z,16.70
2019-02-03T10:55:50.297Z,17.77
2019-02-03T10:58:20.529Z,21.33
2019-02-03T11:00:50.695Z,24.23
2019-02-03T11:03:21.243Z,16.47
2019-02-03T11:05:54.421Z,16.80
2019-02-03T11:08:24.575Z,26.10
2019-02-03T11:10:54.730Z,16.67
2019-02-03T11:13:24.901Z,18.07
2019-02-03T11:15:55.281Z,16.10
2019-02-03T11:18:25.424Z,19.17
2019-02-03T11:20:55.614Z,13.67
2019-02-03T11:23:25.775Z,21.50
2019-02-03T11:25:55.933Z,17.90
2019-02-03T11:28:26.126Z,16.13
2019-02-03T11:30:56.392Z,16.20
2019-02-03T11:33:26.548Z,18.70
2019-02-03T11:35:56.740Z,19.30
2019-02-03T11:38:26.903Z,20.30
2019-02-03T11:40:57.085Z,30.07
2019-02-03T11:43:27.234Z,17.20
2019-02-03T11:45:57.658Z,17.60
2019-02-03T11:48:27.854Z,17.73
2019-02-03T11:50:58.003Z,21.87
2019-02-03T11:53:29.193Z,20.53
2019-02-03T11:55:59.399Z,20.90
2019-02-03T11:58:29.536Z,17.00
2019-02-03T12:00:59.790Z,22.30
2019-02-03T12:03:29.940Z,17.83
2019-02-03T12:06:00.180Z,23.57
2019-02-03T12:08:30.366Z,19.43
2019-02-03T12:11:00.635Z,20.67
2019-02-03T12:13:30.813Z,23.33
2019-02-03T12:16:00.982Z,22.77
2019-02-03T12:18:31.125Z,15.50
2019-02-03T12:21:01.436Z,16.20
2019-02-03T12:23:31.618Z,17.83
2019-02-03T12:26:01.775Z,16.63
2019-02-03T12:28:31.928Z,19.03
2019-02-03T12:31:02.130Z,20.07
2019-02-03T12:33:32.455Z,21.70
2019-02-03T12:36:02.757Z,17.47
2019-02-03T12:38:32.897Z,16.70
2019-02-03T12:41:03.064Z,20.37
2019-02-03T12:43:33.535Z,12.27
2019-02-03T12:46:03.857Z,22.30
2019-02-03T12:48:34.030Z,20.27
2019-02-03T12:51:04.181Z,21.20
2019-02-03T12:53:34.577Z,16.63
2019-02-03T12:56:05.121Z,21.60
2019-02-03T12:58:35.252Z,19.23
2019-02-03T13:01:05.781Z,19.60
2019-02-03T13:03:35.938Z,15.83
2019-02-03T13:06:08.061Z,19.13
2019-02-03T13:08:38.063Z,14.50
2019-02-03T13:11:08.383Z,14.20
2019-02-03T13:13:38.554Z,22.13
2019-02-03T13:16:08.791Z,14.67
2019-02-03T13:18:39.119Z,19.30
2019-02-03T13:21:09.272Z,27.53
2019-02-03T13:23:45.077Z,17.40
2019-02-03T13:26:11.277Z,13.13
2019-02-03T13:28:41.440Z,13.60
2019-02-03T13:31:11.602Z,15.40
2019-02-03T13:33:43.310Z,10.53
2019-02-03T13:36:13.523Z,14.33
2019-02-03T13:38:43.704Z,9.03
2019-02-03T13:41:13.866Z,12.90
2019-02-03T13:43:44.368Z,11.80
2019-02-03T13:46:14.520Z,8.90
2019-02-03T13:48:44.657Z,9.43
2019-02-03T13:51:14.843Z,11.70
2019-02-03T13:53:44.978Z,5.43
2019-02-03T13:56:15.128Z,6.13
2019-02-03T13:58:45.261Z,11.87
2019-02-03T14:01:15.734Z,6.73
2019-02-03T14:03:45.952Z,7.83
2019-02-03T14:06:16.132Z,6.70
2019-02-03T14:08:46.278Z,6.87
2019-02-03T14:13:49.733Z,6.27
2019-02-03T14:16:19.907Z,7.53
2019-02-03T14:18:50.037Z,8.90
2019-02-03T14:21:20.342Z,5.20
2019-02-03T14:23:50.532Z,5.47
2019-02-03T14:26:20.678Z,7.23
2019-02-03T14:28:50.834Z,6.07
2019-02-03T14:31:20.956Z,7.27
2019-02-03T14:33:51.176Z,4.77
2019-02-03T14:36:21.331Z,3.40
2019-02-03T14:38:51.539Z,5.53
2019-02-03T14:41:21.873Z,4.13
2019-02-03T14:43:52.199Z,4.40
2019-02-03T14:46:22.409Z,6.70
2019-02-03T14:48:52.550Z,6.13
2019-02-03T14:51:22.706Z,4.60
2019-02-03T14:53:53.189Z,6.83
2019-02-03T14:56:23.489Z,5.03
2019-02-03T14:58:53.707Z,4.93
2019-02-03T15:01:23.910Z,5.93
2019-02-03T15:03:54.094Z,6.53
2019-02-03T15:06:24.388Z,8.03
2019-02-03T15:08:54.869Z,4.50
2019-02-03T15:11:25.039Z,4.22
2019-02-03T15:13:55.328Z,5.73
2019-02-03T15:16:25.489Z,4.67
2019-02-03T15:18:55.620Z,7.63
2019-02-03T15:21:26.340Z,4.70
2019-02-03T15:23:56.495Z,5.03
2019-02-03T15:26:26.728Z,3.40
2019-02-03T15:28:56.985Z,7.10
2019-02-03T15:31:27.286Z,3.73
2019-02-03T15:33:57.747Z,4.33
2019-02-03T15:36:27.904Z,5.20
2019-02-03T15:38:58.046Z,5.03
2019-02-03T15:41:28.201Z,4.00
2019-02-03T15:43:58.358Z,3.50
2019-02-03T15:46:28.654Z,4.80
2019-02-03T15:48:58.831Z,2.53
2019-02-03T15:51:29.006Z,3.70
2019-02-03T15:53:59.154Z,4.53
2019-02-03T15:56:29.329Z,5.97
2019-02-03T15:58:59.880Z,3.83
2019-02-03T16:01:30.170Z,3.20
2019-02-03T16:04:00.364Z,4.73
2019-02-03T16:06:30.517Z,3.27
2019-02-03T16:09:00.668Z,2.50
2019-02-03T16:11:30.813Z,1.93
2019-02-03T16:14:01.004Z,1.93
2019-02-03T16:16:31.137Z,2.23
2019-02-03T16:19:01.346Z,2.50
2019-02-03T16:21:31.918Z,3.17
2019-02-03T16:24:02.055Z,4.50
2019-02-03T16:26:32.266Z,2.43
2019-02-03T16:29:02.709Z,2.10
2019-02-03T16:31:32.839Z,1.97
2019-02-03T16:34:03.113Z,1.70
2019-02-03T16:36:33.349Z,4.83
2019-02-03T16:39:04.647Z,2.70
2019-02-03T16:41:35.262Z,3.00
2019-02-03T16:44:05.550Z,1.87
2019-02-03T16:46:36.855Z,2.40
2019-02-03T16:49:07.145Z,1.80
2019-02-03T16:51:37.321Z,2.10
2019-02-03T16:54:07.744Z,2.10
2019-02-03T16:56:38.088Z,2.67
2019-02-03T16:59:08.295Z,5.13
2019-02-03T17:01:38.407Z,1.90
2019-02-03T17:04:08.600Z,4.27
2019-02-03T17:06:38.950Z,1.97
2019-02-03T17:09:10.899Z,2.25
2019-02-03T17:11:41.145Z,4.47
2019-02-03T17:14:11.322Z,2.13
2019-02-03T17:16:41.915Z,2.40
2019-02-03T17:19:12.067Z,3.27
2019-02-03T17:21:42.286Z,2.60
2019-02-03T17:24:12.424Z,2.77
2019-02-03T17:26:42.664Z,2.47
2019-02-03T17:29:12.815Z,3.13
2019-02-03T17:31:43.394Z,3.50
2019-02-03T17:34:13.731Z,2.60
2019-02-03T17:36:43.910Z,2.93
2019-02-03T17:39:14.094Z,6.70
2019-02-03T17:41:44.272Z,2.00
2019-02-03T17:44:19.667Z,4.17
2019-02-03T17:46:46.649Z,5.10
2019-02-03T17:49:16.855Z,3.97
2019-02-03T17:51:47.004Z,1.93
2019-02-03T17:54:17.188Z,2.60
2019-02-03T17:56:47.413Z,7.50
2019-02-03T17:59:17.569Z,5.30
2019-02-03T18:01:47.703Z,1.87
2019-02-03T18:04:17.870Z,2.30
2019-02-03T18:06:48.023Z,3.00
2019-02-03T18:09:18.177Z,2.60
2019-02-03T18:11:48.484Z,4.67
2019-02-03T18:14:24.729Z,12.50
2019-02-03T18:16:50.497Z,3.10
2019-02-03T18:19:20.825Z,2.30
2019-02-03T18:21:50.961Z,8.28
2019-02-03T18:24:21.139Z,3.10
2019-02-03T18:26:51.321Z,3.00
2019-02-03T18:29:21.480Z,5.63
2019-02-03T18:31:51.847Z,4.00
2019-02-03T18:34:22.113Z,2.87
2019-02-03T18:36:52.460Z,3.33
2019-02-03T18:39:22.705Z,2.50
2019-02-03T18:41:52.819Z,6.77
2019-02-03T18:44:23.029Z,2.80
2019-02-03T18:46:53.351Z,4.00
2019-02-03T18:49:23.717Z,2.93
2019-02-03T18:51:53.895Z,2.33
2019-02-03T18:54:24.029Z,3.13
2019-02-03T18:56:54.195Z,4.43
2019-02-03T18:59:24.348Z,3.33
2019-02-03T19:01:54.507Z,3.73
2019-02-03T19:04:24.756Z,4.20
2019-02-03T19:06:55.079Z,3.30
2019-02-03T19:09:25.322Z,5.23
2019-02-03T19:11:55.489Z,5.60
2019-02-03T19:14:29.498Z,4.57
2019-02-03T19:16:59.728Z,3.63
2019-02-03T19:19:29.952Z,4.23
2019-02-03T19:22:00.135Z,3.90
2019-02-03T19:24:30.270Z,4.13
2019-02-03T19:27:00.458Z,3.50
2019-02-03T19:29:30.701Z,6.40
2019-02-03T19:32:00.844Z,4.93
2019-02-03T19:34:31.129Z,3.80
2019-02-03T19:37:05.578Z,4.83
2019-02-03T19:39:33.190Z,5.30
2019-02-03T19:42:03.438Z,3.20
2019-02-03T19:44:34.185Z,5.33
2019-02-03T19:47:04.428Z,3.43
2019-02-03T19:49:34.614Z,8.80
2019-02-03T19:52:04.850Z,3.70
2019-02-03T19:54:35.384Z,4.80
2019-02-03T19:57:05.615Z,4.13
2019-02-03T19:59:46.271Z,2.73
2019-02-03T20:02:07.775Z,4.00
2019-02-03T20:04:37.928Z,4.00
2019-02-03T20:07:08.408Z,2.90
2019-02-03T20:09:38.764Z,5.30
2019-02-03T20:12:08.930Z,2.40
2019-02-03T20:14:39.409Z,8.63
2019-02-03T20:17:09.975Z,3.40
2019-02-03T20:19:40.395Z,4.10
2019-02-03T20:22:10.656Z,2.67
2019-02-03T20:24:41.046Z,4.00
2019-02-03T20:27:11.199Z,6.80
2019-02-03T20:29:41.997Z,4.80
2019-02-03T20:32:12.244Z,3.40
2019-02-03T20:34:42.588Z,3.00
2019-02-03T20:37:12.841Z,3.87
2019-02-03T20:39:42.971Z,5.87
2019-02-03T20:42:13.262Z,3.90
2019-02-03T20:44:43.474Z,4.60
2019-02-03T20:47:14.045Z,4.73
2019-02-03T20:49:44.271Z,4.37
2019-02-03T20:52:14.458Z,4.53
2019-02-03T20:54:44.710Z,4.17
2019-02-03T20:57:14.872Z,3.93
2019-02-03T20:59:45.007Z,3.20
2019-02-03T21:02:15.276Z,2.60
2019-02-03T21:04:45.423Z,2.77
2019-02-03T21:07:15.556Z,3.53
2019-02-03T21:09:45.733Z,2.47
2019-02-03T21:12:15.867Z,2.47
2019-02-03T21:14:46.282Z,3.23
2019-02-03T21:17:16.446Z,4.33
2019-02-03T21:19:46.680Z,4.90
2019-02-03T21:22:16.864Z,3.47
2019-02-03T21:24:47.005Z,5.10
2019-02-03T21:27:17.699Z,5.27
2019-02-03T21:29:47.815Z,6.40
2019-02-03T21:32:18.156Z,4.23
2019-02-03T21:34:48.311Z,7.07
2019-02-03T21:37:18.615Z,4.33
2019-02-03T21:39:48.747Z,7.00
2019-02-03T21:42:18.964Z,7.30
2019-02-03T21:44:49.162Z,8.07
2019-02-03T21:47:19.405Z,6.50
2019-02-03T21:49:49.721Z,4.00
2019-02-03T21:52:19.981Z,4.37
2019-02-03T21:54:50.148Z,7.47
2019-02-03T21:57:20.378Z,7.73
2019-02-03T21:59:50.610Z,4.50
2019-02-03T22:02:20.914Z,5.17
2019-02-03T22:04:51.231Z,5.33
2019-02-03T22:07:21.638Z,6.30
2019-02-03T22:09:51.935Z,6.10
2019-02-03T22:12:22.253Z,7.97
2019-02-03T22:14:52.428Z,6.60
2019-02-03T22:17:22.741Z,11.30
2019-02-03T22:19:53.265Z,6.00
2019-02-03T22:22:23.419Z,4.87
2019-02-03T22:24:53.568Z,4.10
2019-02-03T22:27:23.758Z,5.67
2019-02-03T22:29:53.892Z,5.60
2019-02-03T22:32:24.321Z,7.00
2019-02-03T22:34:54.513Z,5.33
2019-02-03T22:37:24.856Z,5.80
2019-02-03T22:39:54.979Z,8.43
2019-02-03T22:42:25.123Z,8.47
2019-02-03T22:44:55.291Z,7.13
2019-02-03T22:47:25.462Z,6.67
2019-02-03T22:49:55.624Z,8.40
2019-02-03T22:52:25.747Z,9.13
2019-02-03T22:54:55.896Z,11.50
2019-02-03T22:57:26.034Z,10.83
2019-02-03T22:59:56.197Z,8.83
2019-02-03T23:02:26.642Z,9.53
2019-02-03T23:04:56.896Z,8.67
2019-02-03T23:07:27.119Z,9.63
2019-02-03T23:09:57.282Z,7.80
2019-02-03T23:12:27.696Z,6.50
2019-02-03T23:14:57.841Z,7.10
2019-02-03T23:17:28.003Z,9.03
2019-02-03T23:19:58.130Z,10.57
2019-02-03T23:22:28.289Z,5.80
2019-02-03T23:24:58.716Z,11.60
2019-02-03T23:27:28.908Z,12.68
2019-02-03T23:29:59.082Z,10.07
2019-02-03T23:32:29.244Z,8.80
2019-02-03T23:34:59.380Z,12.27
2019-02-03T23:37:29.584Z,8.60
2019-02-03T23:39:59.739Z,7.10
2019-02-03T23:42:29.882Z,7.40
2019-02-03T23:45:00.052Z,7.83
2019-02-03T23:47:30.557Z,7.87
2019-02-03T23:50:00.741Z,9.27
2019-02-03T23:52:31.094Z,7.37
2019-02-03T23:55:01.251Z,6.03
2019-02-03T23:57:31.419Z,7.23
